Insula Oya 2 — FUKI — position and weather

sailwx.info

Track history (hours):
 
Tides and Currents Weather Stations Pressure Air Temp Water Temp Dewpoint Dewpoint Depression Visibility Wind Speed Wind Dir Waves Ship Positions

Insula Oya 2

Last reported at 2017-Nov-18 14:11 UTC. Time now 2017-Nov-18 23:46 UTC.
Position N 46°44' W 002°21'.

Length 50 m; draft 2.4 m.

Type: Passenger vessel. MMSI: 227004900.

Date/timePositionNaut miles runAvg speedWind from/ knotsBaromVisibWave heightAir tempDewpointWater temp
2017-Nov-18 14:11N 46°44' W 002°21'11 1.2
2017-Nov-18 05:06N 46°52' W 002°12'111.6
2017-Nov-18 05:00N 46°53' W 002°11'2 3.7
2017-Nov-18 04:30N 46°54' W 002°08'0 0.0
2017-Nov-18 04:00N 46°54' W 002°08'0 0.0
2017-Nov-18 03:30N 46°54' W 002°08'0 0.0
2017-Nov-18 03:00N 46°54' W 002°08'0 0.0
2017-Nov-18 02:30N 46°54' W 002°08'0 0.0
2017-Nov-18 02:00N 46°54' W 002°08'0 0.0
2017-Nov-18 01:30N 46°54' W 002°08'0 0.0
2017-Nov-18 01:00N 46°54' W 002°08'0 0.0
2017-Nov-18 00:30N 46°54' W 002°08'0 0.0
2017-Nov-18 00:00N 46°54' W 002°08'0 0.0
2017-Nov-17 23:30N 46°54' W 002°08'0 0.0
2017-Nov-17 23:00N 46°54' W 002°08'0 0.0
2017-Nov-17 22:30N 46°54' W 002°08'0 0.0
2017-Nov-17 22:00N 46°54' W 002°08'0 0.0
2017-Nov-17 21:30N 46°54' W 002°08'0 0.0
2017-Nov-17 21:00N 46°54' W 002°08'0 0.0
2017-Nov-17 20:30N 46°54' W 002°08'0 0.0
2017-Nov-17 20:00N 46°54' W 002°08'0 0.0
2017-Nov-17 19:30N 46°54' W 002°08'0 0.0
2017-Nov-17 19:00N 46°54' W 002°08'0 0.0
2017-Nov-17 18:30N 46°54' W 002°08'0 0.0
2017-Nov-17 18:00N 46°54' W 002°08'0 0.0
2017-Nov-17 17:30N 46°54' W 002°08'0 0.0
2017-Nov-17 17:00N 46°54' W 002°08'0 0.0
2017-Nov-17 16:30N 46°54' W 002°08'0 0.0
2017-Nov-17 16:00N 46°54' W 002°08'0 0.0
2017-Nov-17 15:30N 46°54' W 002°08'1 2.9
2017-Nov-17 14:59N 46°54' W 002°11'12 1.2
2017-Nov-17 05:17N 46°44' W 002°20'414.4
2017-Nov-17 05:00N 46°47' W 002°17'714.0
2017-Nov-17 04:29N 46°53' W 002°11'2 4.1
2017-Nov-17 04:01N 46°54' W 002°08'0 0.0
2017-Nov-17 03:31N 46°54' W 002°08'0 0.0
2017-Nov-17 03:00N 46°54' W 002°08'0 0.0
2017-Nov-17 02:30N 46°54' W 002°08'0 0.0
2017-Nov-17 02:00N 46°54' W 002°08'0 0.0
2017-Nov-17 01:31N 46°54' W 002°08'0 0.0
2017-Nov-17 01:01N 46°54' W 002°08'0 0.0
2017-Nov-17 00:31N 46°54' W 002°08'0 0.0
2017-Nov-17 00:01N 46°54' W 002°08'0 0.0
2017-Nov-16 23:31N 46°54' W 002°08'0 0.0
2017-Nov-16 23:01N 46°54' W 002°08'0 0.0
2017-Nov-16 22:30N 46°54' W 002°08'0 0.0
2017-Nov-16 22:01N 46°54' W 002°08'0 0.0
2017-Nov-16 21:30N 46°54' W 002°08'0 0.0
2017-Nov-16 21:01N 46°54' W 002°08'0 0.0
2017-Nov-16 20:31N 46°54' W 002°08'0 0.0
2017-Nov-16 20:01N 46°54' W 002°08'0 0.0
2017-Nov-16 19:31N 46°54' W 002°08'0 0.0
2017-Nov-16 19:00N 46°54' W 002°08'0 0.0
2017-Nov-16 18:31N 46°54' W 002°08'0 0.0
2017-Nov-16 18:00N 46°54' W 002°08'0 0.0
2017-Nov-16 17:31N 46°54' W 002°08'0 0.0
2017-Nov-16 17:00N 46°54' W 002°08'510.1
2017-Nov-16 16:30N 46°51' W 002°14'611.6
2017-Nov-16 16:01N 46°46' W 002°19'3 3.7
2017-Nov-16 15:18N 46°44' W 002°21'0 0.0
2017-Nov-16 14:57N 46°44' W 002°21'0 0.0
2017-Nov-16 14:31N 46°44' W 002°21'0 0.0
2017-Nov-16 13:39N 46°44' W 002°21'0 0.0
2017-Nov-16 13:26N 46°44' W 002°21'613.2
2017-Nov-16 13:00N 46°48' W 002°16'612.0
2017-Nov-16 12:30N 46°53' W 002°11'2 4.2
2017-Nov-16 12:00N 46°54' W 002°08'0 0.0
2017-Nov-16 11:30N 46°54' W 002°08'0 0.0
2017-Nov-16 11:00N 46°54' W 002°08'0 0.0
2017-Nov-16 10:30N 46°54' W 002°08'0 0.0
2017-Nov-16 10:00N 46°54' W 002°08'0 0.0
2017-Nov-16 09:30N 46°54' W 002°08'0 0.0
2017-Nov-16 09:00N 46°54' W 002°08'0 0.0
2017-Nov-16 08:30N 46°54' W 002°08'0 0.0
2017-Nov-16 08:00N 46°54' W 002°08'0 0.0
2017-Nov-16 07:30N 46°54' W 002°08'0 0.0
2017-Nov-16 07:00N 46°54' W 002°08'0 0.0
2017-Nov-16 06:30N 46°54' W 002°08'0 0.0
2017-Nov-16 06:01N 46°54' W 002°08'0 0.0
2017-Nov-16 05:30N 46°54' W 002°08'0 0.0
2017-Nov-16 05:00N 46°54' W 002°08'0 0.0
2017-Nov-16 04:28N 46°54' W 002°08'4 8.5
2017-Nov-16 04:00N 46°51' W 002°13'713.6
2017-Nov-16 03:30N 46°46' W 002°19'3 5.1
2017-Nov-16 02:58N 46°44' W 002°21'0 0.0
2017-Nov-16 02:27N 46°44' W 002°21'0 0.0
2017-Nov-16 01:59N 46°44' W 002°21'0 0.0
2017-Nov-16 01:30N 46°44' W 002°21'0 0.0
2017-Nov-16 00:59N 46°44' W 002°21'0 0.0
2017-Nov-16 00:21N 46°44' W 002°21'0 0.0
2017-Nov-16 00:00N 46°44' W 002°21'0 0.0
2017-Nov-15 23:26N 46°44' W 002°21'0 0.0
2017-Nov-15 22:30N 46°44' W 002°21'0 0.0
2017-Nov-15 19:42N 46°44' W 002°21'0 0.0
2017-Nov-15 19:22N 46°44' W 002°21'0 0.0
2017-Nov-15 19:00N 46°44' W 002°21'10 2.4
2017-Nov-15 14:51N 46°52' W 002°13'410.7
2017-Nov-15 14:30N 46°54' W 002°08'0 0.1
2017-Nov-15 14:00N 46°54' W 002°08'0 0.0
2017-Nov-15 13:30N 46°54' W 002°08'0 0.0
2017-Nov-15 13:00N 46°54' W 002°08'0 0.0
2017-Nov-15 12:30N 46°54' W 002°08'1 2.9
2017-Nov-15 12:00N 46°54' W 002°10'713.1
2017-Nov-15 11:30N 46°48' W 002°16'6 0.8
2017-Nov-15 04:19N 46°44' W 002°21'0 0.0
2017-Nov-15 03:58N 46°44' W 002°21'0 0.0
2017-Nov-15 03:24N 46°44' W 002°21'12 0.9
2017-Nov-14 14:00N 46°53' W 002°11'2 4.4
2017-Nov-14 13:30N 46°54' W 002°08'0 0.0
2017-Nov-14 13:01N 46°54' W 002°08'0 0.0
2017-Nov-14 12:30N 46°54' W 002°08'0 0.0
2017-Nov-14 12:00N 46°54' W 002°08'0 0.0
2017-Nov-14 11:30N 46°54' W 002°08'4 8.1
2017-Nov-14 11:00N 46°51' W 002°13'714.0
2017-Nov-14 10:30N 46°46' W 002°19'  
2017-Nov-10 19:42N 46°51' W 002°14'313.3
2017-Nov-10 19:30N 46°53' W 002°11'2 4.3
2017-Nov-10 19:00N 46°54' W 002°08'0 0.0
2017-Nov-10 18:30N 46°54' W 002°08'0 0.0
2017-Nov-10 18:00N 46°54' W 002°08'0 0.0
2017-Nov-10 17:30N 46°54' W 002°08'0 0.0
2017-Nov-10 17:00N 46°54' W 002°08'0 0.0
2017-Nov-10 16:29N 46°54' W 002°08'0 0.0
2017-Nov-10 15:59N 46°54' W 002°08'0 0.0
2017-Nov-10 15:29N 46°54' W 002°08'0 0.0
2017-Nov-10 14:58N 46°54' W 002°08'0 0.0
2017-Nov-10 14:25N 46°54' W 002°08'0 0.0
2017-Nov-10 12:59N 46°54' W 002°08'0 0.0
2017-Nov-10 04:44N 46°54' W 002°08'0 0.0
2017-Nov-10 04:26N 46°54' W 002°08'0 0.0
2017-Nov-10 04:00N 46°54' W 002°08'0 0.0
2017-Nov-10 03:24N 46°54' W 002°08'0 0.0
2017-Nov-10 02:56N 46°54' W 002°08'0 0.0
2017-Nov-10 02:29N 46°54' W 002°08'10 0.5
2017-Nov-09 07:05N 46°46' W 002°17'114.1
2017-Nov-09 07:00N 46°47' W 002°16'713.8
2017-Nov-09 06:30N 46°53' W 002°11'2 4.1
2017-Nov-09 06:00N 46°54' W 002°08'0 0.0
2017-Nov-09 05:30N 46°54' W 002°08'0 0.0
2017-Nov-09 04:59N 46°54' W 002°08'0 0.0
2017-Nov-09 04:30N 46°54' W 002°08'0 0.0
2017-Nov-09 04:01N 46°54' W 002°08'0 0.0
2017-Nov-09 03:29N 46°54' W 002°08'0 0.0
2017-Nov-09 02:58N 46°54' W 002°08'0 0.0
2017-Nov-09 02:30N 46°54' W 002°08'0 0.0
2017-Nov-09 01:55N 46°54' W 002°08'0 0.0
2017-Nov-09 01:30N 46°54' W 002°08'0 0.0
2017-Nov-09 01:00N 46°54' W 002°08'0 0.0
2017-Nov-09 00:30N 46°54' W 002°08'0 0.0
2017-Nov-09 00:01N 46°54' W 002°08'0 0.0
2017-Nov-08 23:30N 46°54' W 002°08'0 0.0
2017-Nov-08 23:00N 46°54' W 002°08'0 0.0
2017-Nov-08 22:29N 46°54' W 002°08'0 0.0
2017-Nov-08 21:59N 46°54' W 002°08'0 0.0
2017-Nov-08 21:30N 46°54' W 002°08'0 0.0
2017-Nov-08 20:58N 46°54' W 002°08'0 0.0
2017-Nov-08 20:30N 46°54' W 002°08'0 0.0
2017-Nov-08 20:00N 46°54' W 002°08'0 0.0
2017-Nov-08 19:31N 46°54' W 002°08'0 0.0
2017-Nov-08 19:01N 46°54' W 002°08'0 0.0
2017-Nov-08 18:30N 46°54' W 002°08'0 0.0
2017-Nov-08 17:57N 46°54' W 002°08'0 0.0
2017-Nov-08 17:30N 46°54' W 002°08'0 0.0
2017-Nov-08 16:56N 46°54' W 002°08'  
Track history (hours):
 
Tides and Currents Weather Stations Pressure Air Temp Water Temp Dewpoint Dewpoint Depression Visibility Wind Speed Wind Dir Waves Ship Positions

Insula Oya 2

Last reported at 2017-Nov-18 14:11 UTC. Time now 2017-Nov-18 23:46 UTC.
Position N 46°44' W 002°21'.

Length 50 m; draft 2.4 m.

Type: Passenger vessel. MMSI: 227004900.

Date/timePositionNaut miles runAvg speedWind from/ knotsBaromVisibWave heightAir tempDewpointWater temp
2017-Nov-18 14:11N 46°44' W 002°21'11 1.2
2017-Nov-18 05:06N 46°52' W 002°12'111.6
2017-Nov-18 05:00N 46°53' W 002°11'2 3.7
2017-Nov-18 04:30N 46°54' W 002°08'0 0.0
2017-Nov-18 04:00N 46°54' W 002°08'0 0.0
2017-Nov-18 03:30N 46°54' W 002°08'0 0.0
2017-Nov-18 03:00N 46°54' W 002°08'0 0.0
2017-Nov-18 02:30N 46°54' W 002°08'0 0.0
2017-Nov-18 02:00N 46°54' W 002°08'0 0.0
2017-Nov-18 01:30N 46°54' W 002°08'0 0.0
2017-Nov-18 01:00N 46°54' W 002°08'0 0.0
2017-Nov-18 00:30N 46°54' W 002°08'0 0.0
2017-Nov-18 00:00N 46°54' W 002°08'0 0.0
2017-Nov-17 23:30N 46°54' W 002°08'0 0.0
2017-Nov-17 23:00N 46°54' W 002°08'0 0.0
2017-Nov-17 22:30N 46°54' W 002°08'0 0.0
2017-Nov-17 22:00N 46°54' W 002°08'0 0.0
2017-Nov-17 21:30N 46°54' W 002°08'0 0.0
2017-Nov-17 21:00N 46°54' W 002°08'0 0.0
2017-Nov-17 20:30N 46°54' W 002°08'0 0.0
2017-Nov-17 20:00N 46°54' W 002°08'0 0.0
2017-Nov-17 19:30N 46°54' W 002°08'0 0.0
2017-Nov-17 19:00N 46°54' W 002°08'0 0.0
2017-Nov-17 18:30N 46°54' W 002°08'0 0.0
2017-Nov-17 18:00N 46°54' W 002°08'0 0.0
2017-Nov-17 17:30N 46°54' W 002°08'0 0.0
2017-Nov-17 17:00N 46°54' W 002°08'0 0.0
2017-Nov-17 16:30N 46°54' W 002°08'0 0.0
2017-Nov-17 16:00N 46°54' W 002°08'0 0.0
2017-Nov-17 15:30N 46°54' W 002°08'1 2.9
2017-Nov-17 14:59N 46°54' W 002°11'12 1.2
2017-Nov-17 05:17N 46°44' W 002°20'414.4
2017-Nov-17 05:00N 46°47' W 002°17'714.0
2017-Nov-17 04:29N 46°53' W 002°11'2 4.1
2017-Nov-17 04:01N 46°54' W 002°08'0 0.0
2017-Nov-17 03:31N 46°54' W 002°08'0 0.0
2017-Nov-17 03:00N 46°54' W 002°08'0 0.0
2017-Nov-17 02:30N 46°54' W 002°08'0 0.0
2017-Nov-17 02:00N 46°54' W 002°08'0 0.0
2017-Nov-17 01:31N 46°54' W 002°08'0 0.0
2017-Nov-17 01:01N 46°54' W 002°08'0 0.0
2017-Nov-17 00:31N 46°54' W 002°08'0 0.0
2017-Nov-17 00:01N 46°54' W 002°08'0 0.0
2017-Nov-16 23:31N 46°54' W 002°08'0 0.0
2017-Nov-16 23:01N 46°54' W 002°08'0 0.0
2017-Nov-16 22:30N 46°54' W 002°08'0 0.0
2017-Nov-16 22:01N 46°54' W 002°08'0 0.0
2017-Nov-16 21:30N 46°54' W 002°08'0 0.0
2017-Nov-16 21:01N 46°54' W 002°08'0 0.0
2017-Nov-16 20:31N 46°54' W 002°08'0 0.0
2017-Nov-16 20:01N 46°54' W 002°08'0 0.0
2017-Nov-16 19:31N 46°54' W 002°08'0 0.0
2017-Nov-16 19:00N 46°54' W 002°08'0 0.0
2017-Nov-16 18:31N 46°54' W 002°08'0 0.0
2017-Nov-16 18:00N 46°54' W 002°08'0 0.0
2017-Nov-16 17:31N 46°54' W 002°08'0 0.0
2017-Nov-16 17:00N 46°54' W 002°08'510.1
2017-Nov-16 16:30N 46°51' W 002°14'611.6
2017-Nov-16 16:01N 46°46' W 002°19'3 3.7
2017-Nov-16 15:18N 46°44' W 002°21'0 0.0
2017-Nov-16 14:57N 46°44' W 002°21'0 0.0
2017-Nov-16 14:31N 46°44' W 002°21'0 0.0
2017-Nov-16 13:39N 46°44' W 002°21'0 0.0
2017-Nov-16 13:26N 46°44' W 002°21'613.2
2017-Nov-16 13:00N 46°48' W 002°16'612.0
2017-Nov-16 12:30N 46°53' W 002°11'2 4.2
2017-Nov-16 12:00N 46°54' W 002°08'0 0.0
2017-Nov-16 11:30N 46°54' W 002°08'0 0.0
2017-Nov-16 11:00N 46°54' W 002°08'0 0.0
2017-Nov-16 10:30N 46°54' W 002°08'0 0.0
2017-Nov-16 10:00N 46°54' W 002°08'0 0.0
2017-Nov-16 09:30N 46°54' W 002°08'0 0.0
2017-Nov-16 09:00N 46°54' W 002°08'0 0.0
2017-Nov-16 08:30N 46°54' W 002°08'0 0.0
2017-Nov-16 08:00N 46°54' W 002°08'0 0.0
2017-Nov-16 07:30N 46°54' W 002°08'0 0.0
2017-Nov-16 07:00N 46°54' W 002°08'0 0.0
2017-Nov-16 06:30N 46°54' W 002°08'0 0.0
2017-Nov-16 06:01N 46°54' W 002°08'0 0.0
2017-Nov-16 05:30N 46°54' W 002°08'0 0.0
2017-Nov-16 05:00N 46°54' W 002°08'0 0.0
2017-Nov-16 04:28N 46°54' W 002°08'4 8.5
2017-Nov-16 04:00N 46°51' W 002°13'713.6
2017-Nov-16 03:30N 46°46' W 002°19'3 5.1
2017-Nov-16 02:58N 46°44' W 002°21'0 0.0
2017-Nov-16 02:27N 46°44' W 002°21'0 0.0
2017-Nov-16 01:59N 46°44' W 002°21'0 0.0
2017-Nov-16 01:30N 46°44' W 002°21'0 0.0
2017-Nov-16 00:59N 46°44' W 002°21'0 0.0
2017-Nov-16 00:21N 46°44' W 002°21'0 0.0
2017-Nov-16 00:00N 46°44' W 002°21'0 0.0
2017-Nov-15 23:26N 46°44' W 002°21'0 0.0
2017-Nov-15 22:30N 46°44' W 002°21'0 0.0
2017-Nov-15 19:42N 46°44' W 002°21'0 0.0
2017-Nov-15 19:22N 46°44' W 002°21'0 0.0
2017-Nov-15 19:00N 46°44' W 002°21'10 2.4
2017-Nov-15 14:51N 46°52' W 002°13'410.7
2017-Nov-15 14:30N 46°54' W 002°08'0 0.1
2017-Nov-15 14:00N 46°54' W 002°08'0 0.0
2017-Nov-15 13:30N 46°54' W 002°08'0 0.0
2017-Nov-15 13:00N 46°54' W 002°08'0 0.0
2017-Nov-15 12:30N 46°54' W 002°08'1 2.9
2017-Nov-15 12:00N 46°54' W 002°10'713.1
2017-Nov-15 11:30N 46°48' W 002°16'6 0.8
2017-Nov-15 04:19N 46°44' W 002°21'0 0.0
2017-Nov-15 03:58N 46°44' W 002°21'0 0.0
2017-Nov-15 03:24N 46°44' W 002°21'12 0.9
2017-Nov-14 14:00N 46°53' W 002°11'2 4.4
2017-Nov-14 13:30N 46°54' W 002°08'0 0.0
2017-Nov-14 13:01N 46°54' W 002°08'0 0.0
2017-Nov-14 12:30N 46°54' W 002°08'0 0.0
2017-Nov-14 12:00N 46°54' W 002°08'0 0.0
2017-Nov-14 11:30N 46°54' W 002°08'4 8.1
2017-Nov-14 11:00N 46°51' W 002°13'714.0
2017-Nov-14 10:30N 46°46' W 002°19'  
2017-Nov-10 19:42N 46°51' W 002°14'313.3
2017-Nov-10 19:30N 46°53' W 002°11'2 4.3
2017-Nov-10 19:00N 46°54' W 002°08'0 0.0
2017-Nov-10 18:30N 46°54' W 002°08'0 0.0
2017-Nov-10 18:00N 46°54' W 002°08'0 0.0
2017-Nov-10 17:30N 46°54' W 002°08'0 0.0
2017-Nov-10 17:00N 46°54' W 002°08'0 0.0
2017-Nov-10 16:29N 46°54' W 002°08'0 0.0
2017-Nov-10 15:59N 46°54' W 002°08'0 0.0
2017-Nov-10 15:29N 46°54' W 002°08'0 0.0
2017-Nov-10 14:58N 46°54' W 002°08'0 0.0
2017-Nov-10 14:25N 46°54' W 002°08'0 0.0
2017-Nov-10 12:59N 46°54' W 002°08'0 0.0
2017-Nov-10 04:44N 46°54' W 002°08'0 0.0
2017-Nov-10 04:26N 46°54' W 002°08'0 0.0
2017-Nov-10 04:00N 46°54' W 002°08'0 0.0
2017-Nov-10 03:24N 46°54' W 002°08'0 0.0
2017-Nov-10 02:56N 46°54' W 002°08'0 0.0
2017-Nov-10 02:29N 46°54' W 002°08'10 0.5
2017-Nov-09 07:05N 46°46' W 002°17'114.1
2017-Nov-09 07:00N 46°47' W 002°16'713.8
2017-Nov-09 06:30N 46°53' W 002°11'2 4.1
2017-Nov-09 06:00N 46°54' W 002°08'0 0.0
2017-Nov-09 05:30N 46°54' W 002°08'0 0.0
2017-Nov-09 04:59N 46°54' W 002°08'0 0.0
2017-Nov-09 04:30N 46°54' W 002°08'0 0.0
2017-Nov-09 04:01N 46°54' W 002°08'0 0.0
2017-Nov-09 03:29N 46°54' W 002°08'0 0.0
2017-Nov-09 02:58N 46°54' W 002°08'0 0.0
2017-Nov-09 02:30N 46°54' W 002°08'0 0.0
2017-Nov-09 01:55N 46°54' W 002°08'0 0.0
2017-Nov-09 01:30N 46°54' W 002°08'0 0.0
2017-Nov-09 01:00N 46°54' W 002°08'0 0.0
2017-Nov-09 00:30N 46°54' W 002°08'0 0.0
2017-Nov-09 00:01N 46°54' W 002°08'0 0.0
2017-Nov-08 23:30N 46°54' W 002°08'0 0.0
2017-Nov-08 23:00N 46°54' W 002°08'0 0.0
2017-Nov-08 22:29N 46°54' W 002°08'0 0.0
2017-Nov-08 21:59N 46°54' W 002°08'0 0.0
2017-Nov-08 21:30N 46°54' W 002°08'0 0.0
2017-Nov-08 20:58N 46°54' W 002°08'0 0.0
2017-Nov-08 20:30N 46°54' W 002°08'0 0.0
2017-Nov-08 20:00N 46°54' W 002°08'0 0.0
2017-Nov-08 19:31N 46°54' W 002°08'0 0.0
2017-Nov-08 19:01N 46°54' W 002°08'0 0.0
2017-Nov-08 18:30N 46°54' W 002°08'0 0.0
2017-Nov-08 17:57N 46°54' W 002°08'0 0.0
2017-Nov-08 17:30N 46°54' W 002°08'0 0.0
2017-Nov-08 16:56N 46°54' W 002°08'  

Dump ship's entire track history